Time;durP1;ratioP1;P1;durP2;ratioP2;P2;SDS_P1;SDS_P2;PMS_P1;PMS_P2;Temp;Humidity;BMP_temperature;BMP_pressure;BME280_temperature;BME280_humidity;BME280_pressure;Samples;Min_cycle;Max_cycle;Signal;HPM_P1;HPM_P2
2022/04/01 00:00:01;;;;;;;27.03;18.07;;;8.60;99.90;;;;;;5046366;28;20464;-73
2022/04/01 00:02:27;;;;;;;27.50;18.60;;;8.50;99.90;;;;;;5046338;28;20422;-73
2022/04/01 00:04:53;;;;;;;26.20;17.53;;;8.40;99.90;;;;;;5049282;28;20468;-73
2022/04/01 00:07:19;;;;;;;26.60;18.23;;;8.40;99.90;;;;;;5047338;28;20434;-73
2022/04/01 00:09:47;;;;;;;25.50;19.37;;;8.40;99.90;;;;;;5047055;28;20199;-73
2022/04/01 00:12:13;;;;;;;25.53;17.33;;;8.50;99.90;;;;;;5050675;28;20227;-73
2022/04/01 00:14:42;;;;;;;28.17;18.53;;;8.40;99.90;;;;;;5043014;28;20454;-73
2022/04/01 00:17:08;;;;;;;26.07;17.43;;;8.40;99.90;;;;;;5047197;28;20863;-73
2022/04/01 00:19:34;;;;;;;27.23;18.90;;;8.30;99.90;;;;;;5045591;28;20468;-73
2022/04/01 00:22:00;;;;;;;26.90;18.83;;;8.40;99.90;;;;;;5047934;28;20426;-74
2022/04/01 00:24:26;;;;;;;26.57;18.47;;;8.40;99.90;;;;;;5049617;28;20191;-73
2022/04/01 00:26:52;;;;;;;26.20;18.67;;;8.50;99.90;;;;;;5047131;28;20441;-73
2022/04/01 00:29:18;;;;;;;27.13;18.60;;;8.50;99.90;;;;;;5048117;28;21089;-73
2022/04/01 00:31:48;;;;;;;27.27;19.30;;;8.40;99.90;;;;;;5050176;28;20177;-73
2022/04/01 00:34:16;;;;;;;27.07;19.10;;;8.40;99.90;;;;;;5046468;28;20743;-73
2022/04/01 00:36:49;;;;;;;28.60;18.93;;;8.50;99.90;;;;;;5045355;28;20508;-73
2022/04/01 00:39:17;;;;;;;28.83;20.80;;;8.60;99.90;;;;;;5047491;28;20417;-73
2022/04/01 00:41:44;;;;;;;26.67;18.27;;;8.50;99.90;;;;;;5046384;28;20468;-73
2022/04/01 00:44:15;;;;;;;27.27;19.90;;;8.40;99.90;;;;;;5046631;28;20434;-74
2022/04/01 00:47:01;;;;;;;31.67;19.83;;;8.30;99.90;;;;;;5041894;28;20577;-73
2022/04/01 00:49:29;;;;;;;31.80;18.70;;;8.20;99.90;;;;;;5044818;28;20433;-73
2022/04/01 00:52:03;;;;;;;31.43;20.63;;;8.10;99.90;;;;;;5048610;28;20486;-73
2022/04/01 00:54:29;;;;;;;27.87;19.23;;;8.10;99.90;;;;;;5042884;28;20504;-73
2022/04/01 00:56:55;;;;;;;29.70;19.23;;;8.00;99.90;;;;;;5046104;28;20414;-73
2022/04/01 00:59:25;;;;;;;28.93;19.33;;;7.90;99.90;;;;;;5047372;28;20290;-73
2022/04/01 01:01:51;;;;;;;29.80;19.00;;;8.00;99.90;;;;;;5043746;28;20448;-73
2022/04/01 01:04:19;;;;;;;29.30;18.87;;;8.00;99.90;;;;;;5043927;28;20889;-73
2022/04/01 01:06:52;;;;;;;29.30;18.90;;;8.00;99.90;;;;;;5046439;28;21021;-73
2022/04/01 01:09:19;;;;;;;30.63;18.37;;;7.90;99.90;;;;;;5039403;28;20491;-73
2022/04/01 01:11:49;;;;;;;32.10;18.70;;;7.90;99.90;;;;;;5046557;28;20887;-73
2022/04/01 01:14:22;;;;;;;31.50;19.33;;;7.90;99.90;;;;;;5046517;28;20419;-73
2022/04/01 01:16:47;;;;;;;28.90;20.07;;;8.00;99.90;;;;;;5045236;28;20467;-73
2022/04/01 01:19:15;;;;;;;31.80;20.47;;;8.00;99.90;;;;;;5062352;28;20960;-73
2022/04/01 01:21:42;;;;;;;28.97;19.33;;;7.80;99.90;;;;;;5050381;28;20264;-73
2022/04/01 01:24:14;;;;;;;30.97;19.43;;;7.80;99.90;;;;;;5049060;28;20434;-73
2022/04/01 01:26:44;;;;;;;33.20;20.30;;;7.90;99.90;;;;;;5053501;28;21185;-73
2022/04/01 01:29:14;;;;;;;27.17;18.97;;;7.90;99.90;;;;;;5052838;28;20452;-73
2022/04/01 01:31:40;;;;;;;25.47;18.03;;;7.90;99.90;;;;;;5048114;28;20471;-73
2022/04/01 01:34:06;;;;;;;26.70;18.60;;;8.00;99.90;;;;;;5047806;28;20808;-73
2022/04/01 01:36:31;;;;;;;31.07;18.40;;;8.00;99.90;;;;;;5049888;28;20184;-74
2022/04/01 01:38:57;;;;;;;29.80;20.27;;;8.10;99.90;;;;;;5050819;28;20247;-73
2022/04/01 01:41:25;;;;;;;28.33;17.77;;;8.00;99.90;;;;;;5047827;28;20210;-73
2022/04/01 01:43:51;;;;;;;26.57;17.47;;;8.00;99.90;;;;;;5047605;28;20183;-73
2022/04/01 01:46:18;;;;;;;27.87;18.63;;;8.00;99.90;;;;;;5065799;28;20500;-73
2022/04/01 01:48:43;;;;;;;28.40;18.40;;;8.00;99.90;;;;;;5048534;28;20422;-73
2022/04/01 01:56:40;;;;;;;30.60;18.80;;;8.00;99.90;;;;;;5048934;28;20438;-73
2022/04/01 01:59:07;;;;;;;26.10;18.57;;;8.00;99.90;;;;;;5048710;28;20966;-73
2022/04/01 02:01:33;;;;;;;26.53;17.80;;;8.00;99.90;;;;;;5050937;28;20457;-73
2022/04/01 02:04:01;;;;;;;28.57;20.30;;;8.00;99.90;;;;;;5050749;28;20442;-73
2022/04/01 02:06:27;;;;;;;28.03;18.27;;;7.90;99.90;;;;;;5048774;28;20205;-73
2022/04/01 02:08:54;;;;;;;26.87;19.00;;;7.80;99.90;;;;;;5054420;28;20423;-73
2022/04/01 02:11:21;;;;;;;25.20;16.30;;;7.90;99.90;;;;;;5048801;28;20437;-73
2022/04/01 02:13:48;;;;;;;24.87;17.57;;;7.90;99.90;;;;;;5047904;28;20417;-73
2022/04/01 02:16:14;;;;;;;24.80;17.00;;;7.90;99.90;;;;;;5049360;28;21001;-73
2022/04/01 02:18:43;;;;;;;26.90;17.57;;;7.90;99.90;;;;;;5048892;28;21122;-73
2022/04/01 02:21:15;;;;;;;30.13;18.73;;;7.90;99.90;;;;;;5048865;28;20430;-73
2022/04/01 02:23:43;;;;;;;25.40;17.53;;;8.00;99.90;;;;;;5042981;28;20423;-73
2022/04/01 02:26:12;;;;;;;24.70;17.23;;;8.10;99.90;;;;;;5047013;28;20469;-73
2022/04/01 02:28:39;;;;;;;30.67;19.00;;;8.10;99.90;;;;;;5046952;28;20500;-74
2022/04/01 02:31:05;;;;;;;29.27;18.87;;;8.00;99.90;;;;;;5063656;28;20433;-73
2022/04/01 02:33:32;;;;;;;28.10;17.80;;;8.10;99.90;;;;;;5048760;28;20939;-73
2022/04/01 02:35:58;;;;;;;24.90;17.30;;;8.00;99.90;;;;;;5048931;28;20540;-74
2022/04/01 02:38:25;;;;;;;29.77;18.53;;;8.00;99.90;;;;;;5046660;28;20438;-74
2022/04/01 02:40:53;;;;;;;25.73;18.00;;;7.90;99.90;;;;;;5046302;28;20446;-74
2022/04/01 02:43:19;;;;;;;25.33;15.83;;;7.80;99.90;;;;;;5048932;28;20422;-74
2022/04/01 02:45:48;;;;;;;28.20;19.03;;;7.70;99.90;;;;;;5049046;28;20489;-74
2022/04/01 02:48:18;;;;;;;28.40;17.77;;;7.70;99.90;;;;;;5050757;28;20448;-74
2022/04/01 02:50:45;;;;;;;24.50;16.60;;;7.60;99.90;;;;;;5049870;28;20419;-74
2022/04/01 02:53:12;;;;;;;24.80;16.80;;;7.50;99.90;;;;;;5050108;28;20886;-73
2022/04/01 02:55:39;;;;;;;25.17;15.83;;;7.60;99.90;;;;;;5049963;28;20850;-73
2022/04/01 02:58:08;;;;;;;30.33;18.60;;;7.70;99.90;;;;;;5056695;28;20422;-73
2022/04/01 03:00:39;;;;;;;23.10;15.47;;;7.60;99.90;;;;;;5046344;28;20429;-74
2022/04/01 03:03:07;;;;;;;25.03;15.90;;;7.60;99.90;;;;;;5046796;28;20441;-74
2022/04/01 03:05:37;;;;;;;25.80;18.57;;;7.50;99.90;;;;;;5052233;28;20462;-74
2022/04/01 03:08:06;;;;;;;23.20;16.03;;;7.50;99.90;;;;;;5050115;28;20449;-74
2022/04/01 03:10:32;;;;;;;25.60;17.77;;;7.60;99.90;;;;;;5051821;28;20446;-74
2022/04/01 03:12:59;;;;;;;26.03;16.93;;;7.70;99.90;;;;;;5048498;28;20422;-74
2022/04/01 03:15:25;;;;;;;23.83;16.70;;;7.70;99.90;;;;;;5047857;28;20619;-74
2022/04/01 03:17:51;;;;;;;25.27;16.93;;;7.80;99.90;;;;;;5048116;28;20426;-74
2022/04/01 03:20:17;;;;;;;23.60;16.87;;;7.70;99.90;;;;;;5048196;28;20183;-74
2022/04/01 03:22:43;;;;;;;26.20;16.70;;;7.70;99.90;;;;;;5045718;28;21004;-74
2022/04/01 03:25:15;;;;;;;23.27;16.80;;;7.60;99.90;;;;;;5049791;28;20469;-74
2022/04/01 03:27:41;;;;;;;24.60;16.00;;;7.50;99.90;;;;;;5049125;28;20509;-74
2022/04/01 03:30:11;;;;;;;26.57;17.40;;;7.60;99.90;;;;;;5048085;28;20513;-73
2022/04/01 03:32:40;;;;;;;27.57;17.57;;;7.70;99.90;;;;;;5047178;28;20186;-73
2022/04/01 03:35:13;;;;;;;26.20;18.30;;;7.70;99.90;;;;;;5048723;28;20472;-74
2022/04/01 03:37:39;;;;;;;23.43;15.20;;;7.60;99.90;;;;;;5047404;28;20435;-74
2022/04/01 03:40:05;;;;;;;28.20;18.57;;;7.60;99.90;;;;;;5047914;28;20453;-74
2022/04/01 03:42:32;;;;;;;25.03;17.50;;;7.60;99.90;;;;;;5045948;28;21181;-74
2022/04/01 03:45:06;;;;;;;25.10;17.60;;;7.70;99.90;;;;;;5049027;28;20496;-74
2022/04/01 03:47:50;;;;;;;23.87;16.90;;;7.70;99.90;;;;;;5047995;28;20519;-74
2022/04/01 03:50:19;;;;;;;25.30;17.13;;;7.70;99.90;;;;;;5045975;28;20429;-73
2022/04/01 03:52:47;;;;;;;23.87;16.93;;;7.60;99.90;;;;;;5046723;28;20434;-74
2022/04/01 03:55:13;;;;;;;25.03;16.97;;;7.40;99.90;;;;;;5047194;28;20985;-74
2022/04/01 03:57:41;;;;;;;26.97;17.43;;;7.40;99.90;;;;;;5052442;28;20422;-73
2022/04/01 04:00:12;;;;;;;23.20;16.37;;;7.30;99.90;;;;;;5046293;28;20461;-74
2022/04/01 04:02:40;;;;;;;24.70;17.97;;;7.40;99.90;;;;;;5047493;28;21045;-73
2022/04/01 04:05:09;;;;;;;24.80;16.47;;;7.40;99.90;;;;;;5045463;28;20465;-73
2022/04/01 04:07:40;;;;;;;28.73;18.90;;;7.30;99.90;;;;;;5044888;28;20430;-73
2022/04/01 04:10:07;;;;;;;28.57;18.17;;;7.30;99.90;;;;;;5047113;28;20503;-73
2022/04/01 04:12:37;;;;;;;30.37;18.90;;;7.30;99.90;;;;;;5051855;28;20422;-73
2022/04/01 04:15:04;;;;;;;25.10;18.27;;;7.20;99.90;;;;;;5052802;28;20524;-74
2022/04/01 04:17:39;;;;;;;25.10;18.87;;;7.20;99.90;;;;;;5050629;28;20798;-74
2022/04/01 04:20:14;;;;;;;28.47;18.37;;;7.20;99.90;;;;;;5045538;28;21064;-74
2022/04/01 04:22:51;;;;;;;27.33;18.13;;;7.20;99.90;;;;;;5049930;28;20474;-73
2022/04/01 04:25:22;;;;;;;27.77;18.20;;;7.20;99.90;;;;;;5045351;28;20462;-74
2022/04/01 04:28:12;;;;;;;27.87;17.83;;;7.20;99.90;;;;;;5043706;28;20438;-73
2022/04/01 04:30:51;;;;;;;25.73;17.93;;;7.00;99.90;;;;;;5047207;28;20433;-74
2022/04/01 04:33:18;;;;;;;24.57;17.13;;;7.20;99.90;;;;;;5061529;28;20450;-74
2022/04/01 04:35:48;;;;;;;22.23;16.13;;;7.10;99.90;;;;;;5048838;28;20469;-74
2022/04/01 04:38:16;;;;;;;24.60;16.63;;;7.10;99.90;;;;;;5049340;28;20524;-74
2022/04/01 04:40:42;;;;;;;23.03;18.20;;;7.10;99.90;;;;;;5044977;28;20433;-73
2022/04/01 04:43:10;;;;;;;23.80;17.67;;;7.20;99.90;;;;;;5050445;28;20447;-74
2022/04/01 04:45:36;;;;;;;22.83;16.90;;;7.20;99.90;;;;;;5042056;28;20466;-74
2022/04/01 04:48:04;;;;;;;24.77;18.63;;;7.20;99.90;;;;;;5049205;28;20473;-74
2022/04/01 04:50:32;;;;;;;24.17;17.20;;;7.10;99.90;;;;;;5044423;28;20501;-74
2022/04/01 04:52:58;;;;;;;24.60;17.17;;;7.20;99.90;;;;;;5044815;28;20426;-73
2022/04/01 04:55:24;;;;;;;25.93;16.73;;;7.00;99.90;;;;;;5043235;28;20483;-73
2022/04/01 04:57:52;;;;;;;22.27;16.87;;;7.00;99.90;;;;;;5050766;28;20437;-74
2022/04/01 05:00:20;;;;;;;22.83;16.37;;;7.10;99.90;;;;;;5047767;28;20458;-73
2022/04/01 05:05:59;;;;;;;21.97;16.63;;;7.20;99.90;;;;;;5048398;28;20501;-71
2022/04/01 05:09:05;;;;;;;24.00;18.27;;;7.30;99.90;;;;;;5050461;28;20450;-74
2022/04/01 05:12:00;;;;;;;20.60;16.40;;;7.30;99.90;;;;;;5045259;28;20432;-74
2022/04/01 05:14:38;;;;;;;21.60;16.57;;;7.10;99.90;;;;;;5050337;28;21037;-74
2022/04/01 05:17:22;;;;;;;23.00;17.03;;;7.00;99.90;;;;;;5052076;28;20442;-74
2022/04/01 05:20:13;;;;;;;;;;;;;;;;;;;;;
2022/04/01 05:23:16;;;;;;;21.77;16.70;;;7.00;99.90;;;;;;5050148;28;20445;-74
2022/04/01 05:26:54;;;;;;;23.07;17.33;;;7.20;99.90;;;;;;5047401;28;20469;-74
2022/04/01 05:29:29;;;;;;;21.17;16.77;;;7.10;99.90;;;;;;5043214;28;20501;-74
2022/04/01 05:32:18;;;;;;;23.80;18.07;;;7.00;99.90;;;;;;5047746;28;20426;-72
2022/04/01 05:35:01;;;;;;;;;;;;;;;;;;;;;
2022/04/01 05:37:38;;;;;;;22.13;17.73;;;6.90;99.90;;;;;;5051774;28;20425;-74
2022/04/01 05:40:14;;;;;;;23.07;17.37;;;7.00;99.90;;;;;;5051305;28;20429;-73
2022/04/01 05:42:40;;;;;;;22.47;16.83;;;7.00;99.90;;;;;;5047907;28;20468;-73
2022/04/01 05:45:07;;;;;;;20.97;16.20;;;7.00;99.90;;;;;;5053180;28;20547;-74
2022/04/01 05:47:35;;;;;;;20.77;16.90;;;7.00;99.90;;;;;;5055585;28;20428;-73
2022/04/01 05:50:01;;;;;;;23.70;17.10;;;7.00;99.90;;;;;;5045306;28;20424;-73
2022/04/01 05:52:30;;;;;;;25.87;17.57;;;7.00;99.90;;;;;;5048042;28;20430;-73
2022/04/01 05:55:01;;;;;;;22.77;16.73;;;6.80;99.90;;;;;;5050335;28;20491;-73
2022/04/01 05:57:27;;;;;;;20.60;16.40;;;6.70;99.90;;;;;;5047691;28;20422;-73
2022/04/01 05:59:53;;;;;;;19.10;15.80;;;6.80;99.90;;;;;;5047823;28;20436;-74
2022/04/01 06:02:41;;;;;;;21.80;17.60;;;6.90;99.90;;;;;;5065667;28;20185;-73
2022/04/01 06:05:16;;;;;;;19.67;15.57;;;6.60;99.90;;;;;;5048023;28;20204;-73
2022/04/01 06:08:17;;;;;;;19.80;16.37;;;6.80;99.90;;;;;;5049510;28;20573;-72
2022/04/01 06:10:57;;;;;;;19.67;16.00;;;6.90;99.90;;;;;;5047277;28;20434;-73
2022/04/01 06:13:35;;;;;;;21.80;17.10;;;6.90;99.90;;;;;;5049282;28;20418;-73
2022/04/01 06:16:22;;;;;;;20.33;15.20;;;7.00;99.90;;;;;;5049539;28;20449;-73
2022/04/01 06:19:09;;;;;;;23.13;16.90;;;6.90;99.90;;;;;;5045830;28;20420;-71
2022/04/01 06:21:46;;;;;;;22.90;16.50;;;6.80;99.90;;;;;;5043280;28;20556;-74
2022/04/01 06:24:32;;;;;;;19.90;16.40;;;6.80;99.90;;;;;;5048745;28;20479;-72
2022/04/01 06:27:00;;;;;;;22.40;16.33;;;6.80;99.90;;;;;;5046891;28;20473;-74
2022/04/01 06:29:26;;;;;;;20.80;15.90;;;6.90;99.90;;;;;;5052700;28;20422;-74
2022/04/01 06:32:01;;;;;;;21.73;15.60;;;6.90;99.90;;;;;;5048179;28;20429;-73
2022/04/01 06:34:57;;;;;;;21.77;16.97;;;6.90;99.90;;;;;;5048118;28;20191;-74
2022/04/01 06:37:29;;;;;;;23.93;17.20;;;6.70;99.90;;;;;;5063795;28;20481;-74
2022/04/01 06:40:12;;;;;;;20.17;17.00;;;6.80;99.90;;;;;;5048356;28;21029;-74
2022/04/01 06:42:39;;;;;;;24.87;17.33;;;6.80;99.90;;;;;;5029787;28;20446;-73
2022/04/01 06:45:08;;;;;;;19.43;14.50;;;6.80;99.90;;;;;;5049102;28;20561;-73
2022/04/01 06:47:35;;;;;;;23.87;17.67;;;6.80;99.90;;;;;;5049925;28;20503;-74
2022/04/01 06:50:00;;;;;;;21.90;15.90;;;6.80;99.90;;;;;;5048078;28;20469;-73
2022/04/01 06:52:27;;;;;;;17.97;14.60;;;6.80;99.90;;;;;;5049337;28;20457;-73
2022/04/01 06:54:53;;;;;;;20.07;14.20;;;6.80;99.90;;;;;;5049281;28;20196;-73
2022/04/01 06:57:20;;;;;;;21.60;15.40;;;6.70;99.90;;;;;;5048272;28;20430;-73
2022/04/01 06:59:46;;;;;;;21.60;15.40;;;6.80;99.90;;;;;;5047979;28;20424;-74
2022/04/01 07:02:11;;;;;;;21.10;15.53;;;6.80;99.90;;;;;;5049147;28;20489;-74
2022/04/01 07:04:37;;;;;;;20.33;14.77;;;6.80;99.90;;;;;;5062942;28;20204;-73
2022/04/01 07:07:03;;;;;;;18.30;14.20;;;6.80;99.90;;;;;;5048588;28;20445;-74
2022/04/01 07:09:29;;;;;;;20.37;13.53;;;6.80;99.90;;;;;;5050128;28;20191;-74
2022/04/01 07:11:59;;;;;;;20.70;14.70;;;7.00;99.90;;;;;;5049417;28;20444;-73
2022/04/01 07:14:28;;;;;;;18.47;13.90;;;6.90;99.90;;;;;;5047217;28;20442;-73
2022/04/01 07:16:55;;;;;;;18.17;14.67;;;6.80;99.90;;;;;;5048239;28;20974;-73
2022/04/01 07:19:21;;;;;;;21.17;14.90;;;6.80;99.90;;;;;;5046484;28;20853;-74
2022/04/01 07:21:46;;;;;;;18.30;12.93;;;6.80;99.90;;;;;;5047321;28;20430;-74
2022/04/01 07:24:12;;;;;;;18.37;13.27;;;6.80;99.90;;;;;;5049058;28;20275;-74
2022/04/01 07:26:38;;;;;;;19.83;13.93;;;6.90;99.90;;;;;;5043474;28;20211;-74
2022/04/01 07:29:04;;;;;;;16.07;13.17;;;7.00;99.90;;;;;;5047303;28;20727;-73
2022/04/01 07:34:16;;;;;;;19.93;12.97;;;6.90;99.90;;;;;;5047364;28;20525;-73
2022/04/01 07:36:41;;;;;;;18.37;13.77;;;6.90;99.90;;;;;;5047554;28;20484;-74
2022/04/01 07:39:07;;;;;;;16.90;13.13;;;7.00;99.90;;;;;;5049636;28;21092;-73
2022/04/01 07:41:35;;;;;;;19.03;15.07;;;7.10;99.90;;;;;;5045720;28;20187;-74
2022/04/01 07:44:02;;;;;;;18.00;14.03;;;7.00;99.90;;;;;;5047153;28;20245;-74
2022/04/01 07:46:27;;;;;;;18.83;14.17;;;7.00;99.90;;;;;;5048816;28;20556;-74
2022/04/01 07:48:53;;;;;;;16.50;13.23;;;7.00;99.90;;;;;;5046535;28;20521;-73
2022/04/01 07:51:18;;;;;;;21.17;15.77;;;6.90;99.90;;;;;;5047677;28;20824;-74
2022/04/01 07:53:44;;;;;;;18.50;14.30;;;7.00;99.90;;;;;;5048269;28;20198;-73
2022/04/01 07:56:10;;;;;;;19.43;15.03;;;6.90;99.90;;;;;;5046817;28;20207;-73
2022/04/01 07:58:36;;;;;;;18.10;13.93;;;7.00;99.90;;;;;;5046706;28;20176;-73
2022/04/01 08:01:03;;;;;;;18.43;12.90;;;6.80;99.90;;;;;;5047717;28;21164;-74
2022/04/01 08:03:29;;;;;;;19.50;14.07;;;6.60;99.90;;;;;;5044710;28;20190;-73
2022/04/01 08:05:59;;;;;;;19.07;14.20;;;6.50;99.90;;;;;;5046474;28;20466;-73
2022/04/01 08:08:40;;;;;;;18.10;15.17;;;6.50;99.90;;;;;;5044954;28;20196;-73
2022/04/01 08:11:06;;;;;;;18.60;12.57;;;6.40;99.90;;;;;;5046213;28;20485;-74
2022/04/01 08:13:33;;;;;;;18.67;13.93;;;6.40;99.90;;;;;;5045735;28;20430;-73
2022/04/01 08:16:02;;;;;;;18.07;13.43;;;6.50;99.90;;;;;;5041971;28;20493;-73
2022/04/01 08:18:27;;;;;;;18.50;13.77;;;6.60;99.90;;;;;;5044947;28;20449;-73
2022/04/01 08:20:53;;;;;;;18.47;13.70;;;6.60;99.90;;;;;;5048333;28;20466;-73
2022/04/01 08:23:19;;;;;;;20.93;13.93;;;6.60;99.90;;;;;;5047005;28;20192;-74
2022/04/01 08:25:46;;;;;;;17.20;13.30;;;6.70;99.90;;;;;;5046187;28;20594;-73
2022/04/01 08:28:12;;;;;;;18.73;14.30;;;6.60;99.90;;;;;;5046272;28;20180;-73
2022/04/01 08:30:39;;;;;;;18.03;13.07;;;6.60;99.90;;;;;;5046476;28;20476;-73
2022/04/01 08:33:05;;;;;;;18.63;12.30;;;6.50;99.90;;;;;;5041228;28;20442;-73
2022/04/01 08:35:31;;;;;;;16.57;12.53;;;6.40;99.90;;;;;;5046992;28;20454;-73
2022/04/01 08:37:58;;;;;;;16.43;13.00;;;6.50;99.90;;;;;;5046076;28;20180;-73
2022/04/01 08:40:24;;;;;;;17.10;13.73;;;6.60;99.90;;;;;;5060842;28;20440;-74
2022/04/01 08:42:50;;;;;;;17.70;12.90;;;6.50;99.90;;;;;;5047747;28;20430;-74
2022/04/01 08:45:20;;;;;;;18.17;13.63;;;6.50;99.90;;;;;;5046205;28;20469;-74
2022/04/01 08:47:48;;;;;;;17.87;11.87;;;6.60;99.90;;;;;;5046242;28;20563;-73
2022/04/01 08:50:13;;;;;;;16.10;12.13;;;6.50;99.90;;;;;;5043398;28;20430;-73
2022/04/01 08:52:40;;;;;;;18.00;12.60;;;6.50;99.90;;;;;;5044340;28;20605;-73
2022/04/01 08:55:09;;;;;;;15.53;12.10;;;6.60;99.90;;;;;;5046787;28;20456;-74
2022/04/01 08:57:39;;;;;;;15.10;11.10;;;6.40;99.90;;;;;;5039658;28;20438;-74
2022/04/01 09:00:25;;;;;;;16.60;12.23;;;6.40;99.90;;;;;;5060438;28;20560;-73
2022/04/01 09:03:04;;;;;;;14.03;12.07;;;6.40;99.90;;;;;;5045770;28;20442;-73
2022/04/01 09:05:30;;;;;;;16.00;12.70;;;6.50;99.90;;;;;;5041560;28;20504;-73
2022/04/01 09:08:04;;;;;;;16.20;13.37;;;6.50;99.90;;;;;;5047659;28;21027;-73
2022/04/01 09:10:31;;;;;;;15.47;12.50;;;6.50;99.90;;;;;;5043829;28;20464;-74
2022/04/01 09:12:57;;;;;;;17.30;13.50;;;6.50;99.90;;;;;;5045545;28;20468;-73
2022/04/01 09:15:39;;;;;;;15.63;12.13;;;6.60;99.90;;;;;;5045987;28;20457;-74
2022/04/01 09:18:05;;;;;;;14.10;11.57;;;6.70;99.90;;;;;;5045069;28;20441;-74
2022/04/01 09:20:48;;;;;;;13.50;11.30;;;6.60;99.90;;;;;;5045995;28;20834;-74
2022/04/01 09:23:24;;;;;;;16.00;12.00;;;6.50;99.90;;;;;;5043196;28;20783;-74
2022/04/01 09:25:52;;;;;;;16.73;11.60;;;6.40;99.90;;;;;;5045897;28;20480;-75
2022/04/01 09:28:32;;;;;;;16.10;12.83;;;6.40;99.90;;;;;;5044900;28;20893;-73
2022/04/01 09:31:01;;;;;;;17.80;12.23;;;6.40;99.90;;;;;;5043984;28;20954;-73
2022/04/01 09:33:46;;;;;;;16.17;11.30;;;6.50;99.90;;;;;;5044821;28;20430;-73
2022/04/01 09:36:15;;;;;;;14.93;11.00;;;6.60;99.90;;;;;;5045479;28;20449;-73
2022/04/01 09:38:56;;;;;;;17.13;11.73;;;6.50;99.90;;;;;;5045579;28;20877;-73
2022/04/01 09:41:30;;;;;;;14.27;10.57;;;6.60;99.90;;;;;;5043625;28;20595;-73
2022/04/01 09:44:08;;;;;;;21.10;15.90;;;6.60;99.90;;;;;;5047264;28;20517;-73
2022/04/01 09:46:39;;;;;;;15.60;12.20;;;6.60;99.90;;;;;;5046287;28;20982;-72
2022/04/01 09:49:04;;;;;;;16.37;12.37;;;6.60;99.90;;;;;;5047906;28;20418;-73
2022/04/01 09:51:32;;;;;;;14.17;11.67;;;6.60;99.90;;;;;;5051581;28;20486;-73
2022/04/01 09:54:04;;;;;;;12.40;11.10;;;6.50;99.90;;;;;;5049423;28;20818;-73
2022/04/01 09:56:47;;;;;;;13.33;10.50;;;6.40;99.90;;;;;;5049683;28;20480;-73
2022/04/01 09:59:14;;;;;;;10.60;9.47;;;6.40;99.90;;;;;;5050208;28;20947;-73
2022/04/01 10:01:41;;;;;;;13.40;10.43;;;6.40;99.90;;;;;;5047756;28;20465;-73
2022/04/01 10:04:09;;;;;;;11.73;10.50;;;6.40;99.90;;;;;;5049788;28;20477;-73
2022/04/01 10:06:36;;;;;;;11.13;9.20;;;6.30;99.90;;;;;;5052037;28;20469;-73
2022/04/01 10:09:07;;;;;;;12.70;9.93;;;6.40;99.90;;;;;;5048819;28;20560;-73
2022/04/01 10:11:35;;;;;;;12.57;10.77;;;6.40;99.90;;;;;;5047355;28;20434;-73
2022/04/01 10:14:12;;;;;;;11.40;9.53;;;6.40;99.90;;;;;;5050064;28;20434;-73
2022/04/01 10:16:42;;;;;;;11.30;9.80;;;6.40;99.90;;;;;;5046776;28;21265;-73
2022/04/01 10:19:17;;;;;;;10.07;8.53;;;6.40;99.90;;;;;;5051892;28;20438;-73
2022/04/01 10:21:44;;;;;;;11.17;9.70;;;6.30;99.90;;;;;;5048697;28;20495;-73
2022/04/01 10:24:48;;;;;;;12.73;11.17;;;6.30;99.90;;;;;;5049574;28;20481;-73
2022/04/01 10:27:40;;;;;;;13.30;11.40;;;6.30;99.90;;;;;;5048004;28;20829;-73
2022/04/01 10:30:13;;;;;;;15.60;11.33;;;6.30;99.90;;;;;;5045818;28;20466;-73
2022/04/01 10:32:47;;;;;;;14.60;11.60;;;6.30;99.90;;;;;;5047435;28;20456;-73
2022/04/01 10:35:24;;;;;;;18.93;13.00;;;6.30;99.90;;;;;;5047862;28;20481;-74
2022/04/01 10:38:18;;;;;;;16.93;12.30;;;6.30;99.90;;;;;;5040116;28;20519;-73
2022/04/01 10:40:46;;;;;;;14.10;12.17;;;6.20;99.90;;;;;;5044764;28;20488;-73
2022/04/01 10:43:25;;;;;;;14.90;12.37;;;6.30;99.90;;;;;;5047743;28;20492;-73
2022/04/01 10:45:59;;;;;;;16.37;12.47;;;6.40;99.90;;;;;;5040266;28;20539;-74
2022/04/01 10:54:01;;;;;;;16.27;12.17;;;6.60;99.90;;;;;;5046303;28;20503;-73
2022/04/01 10:56:31;;;;;;;15.57;13.00;;;6.70;99.90;;;;;;5047612;28;20442;-73
2022/04/01 10:59:01;;;;;;;14.23;12.20;;;6.80;99.90;;;;;;5047237;28;20419;-73
2022/04/01 11:01:27;;;;;;;13.87;12.40;;;6.80;99.90;;;;;;5045688;28;20520;-73
2022/04/01 11:03:52;;;;;;;17.73;13.70;;;6.70;99.90;;;;;;5046272;28;20483;-73
2022/04/01 11:06:22;;;;;;;13.07;11.70;;;6.70;99.90;;;;;;5046224;28;20360;-73
2022/04/01 11:08:55;;;;;;;14.03;12.63;;;6.50;99.90;;;;;;5044733;28;20172;-73
2022/04/01 11:11:20;;;;;;;16.77;12.27;;;6.40;99.90;;;;;;5046306;28;20506;-74
2022/04/01 11:14:04;;;;;;;16.07;12.70;;;6.30;99.90;;;;;;5047985;28;20797;-73
2022/04/01 11:16:45;;;;;;;15.73;12.63;;;6.30;99.90;;;;;;5045982;28;20309;-73
2022/04/01 11:19:15;;;;;;;15.90;13.10;;;6.30;99.90;;;;;;5045483;28;20671;-74
2022/04/01 11:21:42;;;;;;;17.27;13.00;;;6.30;99.90;;;;;;5042873;28;20468;-73
2022/04/01 11:24:31;;;;;;;14.80;11.60;;;6.20;99.90;;;;;;5047403;28;20431;-74
2022/04/01 11:27:23;;;;;;;16.27;12.43;;;6.30;99.90;;;;;;5047678;28;21027;-73
2022/04/01 11:30:08;;;;;;;18.27;12.50;;;6.20;99.90;;;;;;5046760;28;20549;-73
2022/04/01 11:32:35;;;;;;;15.43;11.73;;;6.30;99.90;;;;;;5046607;28;20471;-73
2022/04/01 11:35:04;;;;;;;14.30;12.10;;;6.10;99.90;;;;;;5045816;28;20453;-73
2022/04/01 11:37:34;;;;;;;15.90;12.33;;;6.10;99.90;;;;;;5046846;28;20940;-73
2022/04/01 11:40:16;;;;;;;18.53;12.90;;;5.90;99.90;;;;;;5046095;28;20434;-73
2022/04/01 11:43:02;;;;;;;14.50;11.70;;;6.00;99.90;;;;;;5046389;28;20421;-73
2022/04/01 11:45:31;;;;;;;12.40;10.70;;;6.20;99.90;;;;;;5046336;28;20949;-72
2022/04/01 11:47:57;;;;;;;13.80;11.70;;;6.20;99.90;;;;;;5045714;28;20442;-73
2022/04/01 11:50:24;;;;;;;14.53;12.07;;;6.20;99.90;;;;;;5047096;28;20429;-73
2022/04/01 11:52:53;;;;;;;12.97;11.10;;;6.30;99.90;;;;;;5045990;28;20440;-72
2022/04/01 11:55:26;;;;;;;14.23;12.40;;;6.30;99.90;;;;;;5044604;28;20588;-72
2022/04/01 11:57:54;;;;;;;13.27;11.87;;;6.30;99.90;;;;;;5059984;28;20483;-72
2022/04/01 12:00:23;;;;;;;15.93;12.47;;;6.20;99.90;;;;;;5046718;28;20430;-73
2022/04/01 12:02:51;;;;;;;12.43;10.83;;;6.10;99.90;;;;;;5043861;28;21015;-73
2022/04/01 12:05:18;;;;;;;14.23;12.03;;;6.10;99.90;;;;;;5046051;28;20469;-75
2022/04/01 12:10:40;;;;;;;14.70;11.77;;;6.00;99.90;;;;;;5044743;28;20459;-73
2022/04/01 12:13:09;;;;;;;16.03;11.27;;;5.80;99.90;;;;;;5045257;28;20833;-73
2022/04/01 12:15:44;;;;;;;17.60;12.27;;;5.80;99.90;;;;;;5047432;28;20442;-73
2022/04/01 12:18:15;;;;;;;14.20;11.00;;;5.90;99.90;;;;;;5046603;28;21054;-73
2022/04/01 12:20:47;;;;;;;13.70;12.23;;;6.00;99.90;;;;;;5048370;28;20426;-73
2022/04/01 12:23:14;;;;;;;15.47;12.03;;;6.10;99.90;;;;;;5049472;28;20417;-73
2022/04/01 12:25:42;;;;;;;17.20;12.73;;;6.10;99.90;;;;;;5045801;28;20464;-73
2022/04/01 12:28:10;;;;;;;14.97;12.13;;;6.10;99.90;;;;;;5045559;28;20442;-73
2022/04/01 12:30:43;;;;;;;14.07;11.40;;;6.10;99.90;;;;;;5046934;28;20418;-73
2022/04/01 12:33:17;;;;;;;15.53;12.30;;;6.10;99.90;;;;;;5044817;28;21107;-73
2022/04/01 12:35:49;;;;;;;15.70;11.50;;;6.10;99.90;;;;;;5041680;28;20449;-73
2022/04/01 12:38:16;;;;;;;14.33;12.47;;;6.20;99.90;;;;;;5047571;28;21210;-73
2022/04/01 12:40:45;;;;;;;15.00;12.33;;;6.20;99.90;;;;;;5044634;28;20939;-73
2022/04/01 12:43:36;;;;;;;16.70;13.87;;;6.20;99.90;;;;;;5042890;28;20449;-73
2022/04/01 12:46:15;;;;;;;14.73;13.13;;;6.30;99.90;;;;;;5061723;28;20473;-73
2022/04/01 12:48:51;;;;;;;15.53;12.40;;;6.10;99.90;;;;;;5045662;28;20421;-73
2022/04/01 12:51:33;;;;;;;14.30;11.00;;;6.10;99.90;;;;;;5044946;28;20791;-73
2022/04/01 12:54:02;;;;;;;12.63;11.33;;;5.90;99.90;;;;;;5044312;28;20887;-73
2022/04/01 12:56:30;;;;;;;17.13;11.60;;;5.90;99.90;;;;;;5044928;28;20485;-73
2022/04/01 12:59:07;;;;;;;12.23;11.03;;;5.90;99.90;;;;;;5044028;28;20419;-73
2022/04/01 13:01:35;;;;;;;13.53;11.23;;;5.90;99.90;;;;;;5041240;28;20469;-73
2022/04/01 13:04:01;;;;;;;12.70;10.70;;;6.00;99.90;;;;;;5043725;28;20508;-73
2022/04/01 13:06:28;;;;;;;12.70;11.43;;;5.80;99.90;;;;;;5043316;28;20545;-73
2022/04/01 13:09:07;;;;;;;14.90;11.83;;;5.90;99.90;;;;;;5046758;28;20439;-73
2022/04/01 13:11:41;;;;;;;16.37;12.83;;;5.80;99.90;;;;;;5043939;28;20439;-73
2022/04/01 13:14:28;;;;;;;13.53;10.90;;;5.70;99.90;;;;;;5044826;28;20441;-73
2022/04/01 13:17:01;;;;;;;12.30;10.97;;;5.60;99.90;;;;;;5046223;28;20792;-73